createdAt,value
2023-01-18T00:00:06.222Z,-0.6
2023-01-18T00:01:06.480Z,-0.6
2023-01-18T00:02:06.761Z,-0.6
2023-01-18T00:03:07.041Z,-0.6
2023-01-18T00:04:07.214Z,-0.6
2023-01-18T00:05:07.549Z,-0.6
2023-01-18T00:06:07.835Z,-0.5
2023-01-18T00:07:08.011Z,-0.5
2023-01-18T00:08:08.192Z,-0.5
2023-01-18T00:09:08.368Z,-0.5
2023-01-18T00:10:08.572Z,-0.5
2023-01-18T00:11:08.747Z,-0.5
2023-01-18T00:12:08.925Z,-0.5
2023-01-18T00:13:09.121Z,-0.5
2023-01-18T00:14:09.308Z,-0.5
2023-01-18T00:15:09.492Z,-0.5
2023-01-18T00:16:09.838Z,-0.5
2023-01-18T00:17:10.143Z,-0.5
2023-01-18T00:18:10.328Z,-0.5
2023-01-18T00:19:10.492Z,-0.5
2023-01-18T00:20:10.664Z,-0.5
2023-01-18T00:21:10.852Z,-0.5
2023-01-18T00:22:11.023Z,-0.5
2023-01-18T00:23:11.199Z,-0.5
2023-01-18T00:24:11.389Z,-0.5
2023-01-18T00:25:11.565Z,-0.4
2023-01-18T00:26:11.761Z,-0.4
2023-01-18T00:27:11.932Z,-0.4
2023-01-18T00:28:12.096Z,-0.4
2023-01-18T00:29:12.285Z,-0.4
2023-01-18T00:30:12.460Z,-0.4
2023-01-18T00:31:12.671Z,-0.4
2023-01-18T00:32:12.912Z,-0.4
2023-01-18T00:33:13.079Z,-0.4
2023-01-18T00:34:13.284Z,-0.4
2023-01-18T00:35:13.471Z,-0.4
2023-01-18T00:36:13.653Z,-0.4
2023-01-18T00:37:13.855Z,-0.4
2023-01-18T00:38:14.030Z,-0.4
2023-01-18T00:39:14.218Z,-0.4
2023-01-18T00:40:14.384Z,-0.4
2023-01-18T00:41:14.578Z,-0.4
2023-01-18T00:42:14.747Z,-0.4
2023-01-18T00:43:14.920Z,-0.4
2023-01-18T00:44:15.125Z,-0.4
2023-01-18T00:45:15.295Z,-0.3
2023-01-18T00:46:15.476Z,-0.3
2023-01-18T00:47:15.650Z,-0.3
2023-01-18T00:48:15.813Z,-0.3
2023-01-18T00:49:15.969Z,-0.3
2023-01-18T00:50:16.138Z,-0.3
2023-01-18T00:51:16.342Z,-0.3
2023-01-18T00:52:16.515Z,-0.3
2023-01-18T00:53:16.703Z,-0.3
2023-01-18T00:54:16.877Z,-0.3
2023-01-18T00:55:17.063Z,-0.2
2023-01-18T00:56:17.272Z,-0.2
2023-01-18T00:57:17.459Z,-0.2
2023-01-18T00:58:17.646Z,-0.2
2023-01-18T00:59:17.825Z,-0.2
2023-01-18T01:00:17.993Z,-0.2
2023-01-18T01:01:18.495Z,-0.2
2023-01-18T01:02:19.072Z,-0.2
2023-01-18T01:03:19.278Z,-0.2
2023-01-18T01:04:19.442Z,-0.2
2023-01-18T01:05:19.628Z,-0.1
2023-01-18T01:06:19.812Z,-0.1
2023-01-18T01:07:19.993Z,-0.1
2023-01-18T01:08:20.172Z,-0.1
2023-01-18T01:09:20.411Z,-0.1
2023-01-18T01:10:20.587Z,-0.1
2023-01-18T01:11:20.761Z,-0.1
2023-01-18T01:12:20.931Z,-0.1
2023-01-18T01:13:21.118Z,-0.1
2023-01-18T01:14:21.302Z,-0.1
2023-01-18T01:15:21.472Z,0
2023-01-18T01:16:21.700Z,0
2023-01-18T01:17:21.915Z,0
2023-01-18T01:18:22.100Z,0
2023-01-18T01:19:22.264Z,0
2023-01-18T01:20:22.442Z,0
2023-01-18T01:21:22.619Z,0
2023-01-18T01:22:22.810Z,0
2023-01-18T01:23:22.984Z,0
2023-01-18T01:24:23.156Z,0
2023-01-18T01:25:23.334Z,0.2
2023-01-18T01:26:23.497Z,0.2
2023-01-18T01:27:23.653Z,0.2
2023-01-18T01:28:23.860Z,0.2
2023-01-18T01:29:24.036Z,0.2
2023-01-18T01:30:24.287Z,0.2
2023-01-18T01:31:24.523Z,0.2
2023-01-18T01:32:24.693Z,0.2
2023-01-18T01:33:24.865Z,0.2
2023-01-18T01:34:25.038Z,0.2
2023-01-18T01:35:25.223Z,0.3
2023-01-18T01:36:25.387Z,0.3
2023-01-18T01:37:25.564Z,0.3
2023-01-18T01:38:25.755Z,0.3
2023-01-18T01:39:25.967Z,0.3
2023-01-18T01:40:26.138Z,0.3
2023-01-18T01:41:26.300Z,0.3
2023-01-18T01:42:26.486Z,0.3
2023-01-18T01:43:26.652Z,0.3
2023-01-18T01:44:26.819Z,0.3
2023-01-18T01:45:27.005Z,0.4
2023-01-18T01:46:27.178Z,0.4
2023-01-18T01:47:27.345Z,0.4
2023-01-18T01:48:27.529Z,0.4
2023-01-18T01:49:27.702Z,0.4
2023-01-18T01:50:27.884Z,0.4
2023-01-18T01:51:28.047Z,0.4
2023-01-18T01:52:28.228Z,0.4
2023-01-18T01:53:28.397Z,0.4
2023-01-18T01:54:28.552Z,0.4
2023-01-18T01:55:28.729Z,0.4
2023-01-18T01:56:28.904Z,0.4
2023-01-18T01:57:29.084Z,0.4
2023-01-18T01:58:29.262Z,0.4
2023-01-18T01:59:29.438Z,0.4
2023-01-18T02:00:29.612Z,0.4
2023-01-18T02:01:29.941Z,0.4
2023-01-18T02:02:30.383Z,0.4
2023-01-18T02:03:30.650Z,0.4
2023-01-18T02:04:30.824Z,0.4
2023-01-18T02:05:31.012Z,0.4
2023-01-18T02:06:31.403Z,0.4
2023-01-18T02:07:31.926Z,0.4
2023-01-18T02:08:32.106Z,0.4
2023-01-18T02:09:32.315Z,0.4
2023-01-18T02:10:32.496Z,0.4
2023-01-18T02:11:32.701Z,0.4
2023-01-18T02:12:32.872Z,0.4
2023-01-18T02:13:33.044Z,0.4
2023-01-18T02:14:33.227Z,0.4
2023-01-18T02:15:33.420Z,0.4
2023-01-18T02:16:33.796Z,0.4
2023-01-18T02:17:34.075Z,0.4
2023-01-18T02:18:34.253Z,0.4
2023-01-18T02:19:34.419Z,0.4
2023-01-18T02:20:34.678Z,0.4
2023-01-18T02:21:34.858Z,0.4
2023-01-18T02:22:35.031Z,0.4
2023-01-18T02:23:35.213Z,0.4
2023-01-18T02:24:35.385Z,0.4
2023-01-18T02:25:35.555Z,0.5
2023-01-18T02:26:35.728Z,0.5
2023-01-18T02:27:35.894Z,0.5
2023-01-18T02:28:36.071Z,0.5
2023-01-18T02:29:36.240Z,0.5
2023-01-18T02:30:36.494Z,0.5
2023-01-18T02:31:36.726Z,0.5
2023-01-18T02:32:36.918Z,0.5
2023-01-18T02:33:37.097Z,0.5
2023-01-18T02:34:37.272Z,0.5
2023-01-18T02:35:37.481Z,0.5
2023-01-18T02:36:37.663Z,0.5
2023-01-18T02:37:37.830Z,0.5
2023-01-18T02:38:38.009Z,0.5
2023-01-18T02:39:38.432Z,0.5
2023-01-18T02:40:38.703Z,0.5
2023-01-18T02:41:38.873Z,0.5
2023-01-18T02:42:39.042Z,0.5
2023-01-18T02:43:39.209Z,0.5
2023-01-18T02:44:39.385Z,0.5
2023-01-18T02:45:39.558Z,0.6
2023-01-18T02:46:39.723Z,0.6
2023-01-18T02:47:39.907Z,0.6
2023-01-18T02:48:40.090Z,0.6
2023-01-18T02:49:40.255Z,0.6
2023-01-18T02:50:40.472Z,0.6
2023-01-18T02:51:40.646Z,0.6
2023-01-18T02:52:40.818Z,0.6
2023-01-18T02:53:40.991Z,0.6
2023-01-18T02:54:41.183Z,0.6
2023-01-18T02:55:41.353Z,0.6
2023-01-18T02:56:41.540Z,0.6
2023-01-18T02:57:41.732Z,0.6
2023-01-18T02:58:41.896Z,0.6
2023-01-18T02:59:42.087Z,0.6
2023-01-18T03:00:42.261Z,0.6
2023-01-18T03:01:42.620Z,0.6
2023-01-18T03:02:42.990Z,0.6
2023-01-18T03:03:43.228Z,0.6
2023-01-18T03:04:43.403Z,0.6
2023-01-18T03:05:43.581Z,0.7
2023-01-18T03:06:43.753Z,0.7
2023-01-18T03:07:43.924Z,0.7
2023-01-18T03:08:44.094Z,0.7
2023-01-18T03:09:44.266Z,0.7
2023-01-18T03:10:44.427Z,0.7
2023-01-18T03:11:44.606Z,0.7
2023-01-18T03:12:44.763Z,0.7
2023-01-18T03:13:44.934Z,0.7
2023-01-18T03:14:45.107Z,0.7
2023-01-18T03:15:45.315Z,0.7
2023-01-18T03:16:45.549Z,0.7
2023-01-18T03:17:45.716Z,0.7
2023-01-18T03:18:45.880Z,0.7
2023-01-18T03:19:46.039Z,0.7
2023-01-18T03:20:46.226Z,0.7
2023-01-18T03:21:46.399Z,0.7
2023-01-18T03:22:46.583Z,0.7
2023-01-18T03:23:46.747Z,0.7
2023-01-18T03:24:46.925Z,0.7
2023-01-18T03:25:47.162Z,0.7
2023-01-18T03:26:47.598Z,0.7
2023-01-18T03:27:47.879Z,0.7
2023-01-18T03:28:48.051Z,0.7
2023-01-18T03:29:48.219Z,0.7
2023-01-18T03:30:48.533Z,0.7
2023-01-18T03:31:48.731Z,0.7
2023-01-18T03:32:48.897Z,0.7
2023-01-18T03:33:49.070Z,0.7
2023-01-18T03:34:49.237Z,0.7
2023-01-18T03:35:49.415Z,0.8
2023-01-18T03:36:49.587Z,0.8
2023-01-18T03:37:49.754Z,0.8
2023-01-18T03:38:49.946Z,0.8
2023-01-18T03:39:50.122Z,0.8
2023-01-18T03:40:50.296Z,0.8
2023-01-18T03:41:50.483Z,0.8
2023-01-18T03:42:50.651Z,0.8
2023-01-18T03:43:50.823Z,0.8
2023-01-18T03:44:50.990Z,0.8
2023-01-18T03:45:51.173Z,0.8
2023-01-18T03:46:51.371Z,0.8
2023-01-18T03:47:51.533Z,0.8
2023-01-18T03:48:51.712Z,0.8
2023-01-18T03:49:51.883Z,0.8
2023-01-18T03:50:52.056Z,0.8
2023-01-18T03:51:52.229Z,0.8
2023-01-18T03:52:52.403Z,0.8
2023-01-18T03:53:52.564Z,0.8
2023-01-18T03:54:52.737Z,0.8
2023-01-18T03:55:52.905Z,0.9
2023-01-18T03:56:53.093Z,0.9
2023-01-18T03:57:53.295Z,0.9
2023-01-18T03:58:53.476Z,0.9
2023-01-18T03:59:53.644Z,0.9
2023-01-18T04:00:53.882Z,0.9
2023-01-18T04:01:54.230Z,0.9
2023-01-18T04:02:54.805Z,0.9
2023-01-18T04:03:55.156Z,0.9
2023-01-18T04:04:55.362Z,0.9
2023-01-18T04:05:55.536Z,0.9
2023-01-18T04:06:55.707Z,0.9
2023-01-18T04:07:55.877Z,0.9
2023-01-18T04:08:56.043Z,0.9
2023-01-18T04:09:56.212Z,0.9
2023-01-18T04:10:56.390Z,0.9
2023-01-18T04:11:56.591Z,0.9
2023-01-18T04:12:57.553Z,0.9
2023-01-18T04:13:58.383Z,0.9
2023-01-18T04:14:58.559Z,0.9
2023-01-18T04:15:58.835Z,0.8
2023-01-18T04:16:59.036Z,0.8
2023-01-18T04:17:59.205Z,0.8
2023-01-18T04:18:59.386Z,0.8
2023-01-18T04:19:59.578Z,0.8
2023-01-18T04:20:59.766Z,0.8
2023-01-18T04:21:59.958Z,0.8
2023-01-18T04:23:01.155Z,0.8
2023-01-18T04:24:01.719Z,0.8
2023-01-18T04:25:01.957Z,0.8
2023-01-18T04:26:02.146Z,0.8
2023-01-18T04:27:02.314Z,0.8
2023-01-18T04:28:02.492Z,0.8
2023-01-18T04:29:02.677Z,0.8
2023-01-18T04:30:02.894Z,0.8
2023-01-18T04:31:03.158Z,0.8
2023-01-18T04:32:03.370Z,0.8
2023-01-18T04:33:03.546Z,0.8
2023-01-18T04:34:03.715Z,0.8
2023-01-18T04:35:03.897Z,0.8
2023-01-18T04:36:04.091Z,0.9
2023-01-18T04:37:04.303Z,0.9
2023-01-18T04:38:04.485Z,0.9
2023-01-18T04:39:04.646Z,0.9
2023-01-18T04:40:04.827Z,0.9
2023-01-18T04:41:05.013Z,0.9
2023-01-18T04:42:05.176Z,0.9
2023-01-18T04:43:05.357Z,0.9
2023-01-18T04:44:05.533Z,0.9
2023-01-18T04:45:05.712Z,0.9
2023-01-18T04:46:05.909Z,1
2023-01-18T04:47:06.106Z,1
2023-01-18T04:48:06.284Z,1
2023-01-18T04:49:06.452Z,1
2023-01-18T04:50:06.637Z,1
2023-01-18T04:51:06.810Z,1
2023-01-18T04:52:06.991Z,1
2023-01-18T04:53:07.173Z,1
2023-01-18T04:54:07.342Z,1
2023-01-18T04:55:07.511Z,1.1
2023-01-18T04:56:07.682Z,1.1
2023-01-18T04:57:07.857Z,1.1
2023-01-18T04:58:08.037Z,1.1
2023-01-18T04:59:08.206Z,1.1
2023-01-18T05:00:09.021Z,1.1
2023-01-18T05:01:09.501Z,1.1
2023-01-18T05:02:09.915Z,1.1
2023-01-18T05:03:10.164Z,1.1
2023-01-18T05:04:10.381Z,1.1
2023-01-18T05:05:10.553Z,1.1
2023-01-18T05:06:10.758Z,1.1
2023-01-18T05:07:10.931Z,1.1
2023-01-18T05:08:11.100Z,1.1
2023-01-18T05:09:11.268Z,1.1
2023-01-18T05:10:11.437Z,1.1
2023-01-18T05:11:11.606Z,1.1
2023-01-18T05:12:11.778Z,1.1
2023-01-18T05:13:11.959Z,1.1
2023-01-18T05:14:12.159Z,1.1
2023-01-18T05:15:12.345Z,1.2
2023-01-18T05:16:12.742Z,1.2
2023-01-18T05:17:13.009Z,1.2
2023-01-18T05:18:13.240Z,1.2
2023-01-18T05:19:13.414Z,1.2
2023-01-18T05:20:13.595Z,1.2
2023-01-18T05:21:13.790Z,1.2
2023-01-18T05:22:13.959Z,1.2
2023-01-18T05:23:14.138Z,1.2
2023-01-18T05:24:14.386Z,1.2
2023-01-18T05:25:14.547Z,1.2
2023-01-18T05:26:14.764Z,1.2
2023-01-18T05:27:14.958Z,1.2
2023-01-18T05:28:15.143Z,1.2
2023-01-18T05:29:15.313Z,1.2
2023-01-18T05:30:15.496Z,1.2
2023-01-18T05:31:15.791Z,1.2
2023-01-18T05:32:16.035Z,1.2
2023-01-18T05:33:16.220Z,1.2
2023-01-18T05:34:16.385Z,1.2
2023-01-18T05:35:16.599Z,1.2
2023-01-18T05:36:16.808Z,1.2
2023-01-18T05:37:16.972Z,1.2
2023-01-18T05:38:17.155Z,1.2
2023-01-18T05:39:17.337Z,1.2
2023-01-18T05:40:17.501Z,1.2
2023-01-18T05:41:17.669Z,1.2
2023-01-18T05:42:17.861Z,1.2
2023-01-18T05:43:18.028Z,1.2
2023-01-18T05:44:18.221Z,1.2
2023-01-18T05:45:18.455Z,1.2
2023-01-18T05:46:18.872Z,1.2
2023-01-18T05:47:19.056Z,1.2
2023-01-18T05:48:19.236Z,1.2
2023-01-18T05:49:19.403Z,1.2
2023-01-18T05:50:19.576Z,1.2
2023-01-18T05:51:19.743Z,1.2
2023-01-18T05:52:19.911Z,1.2
2023-01-18T05:53:20.092Z,1.2
2023-01-18T05:54:20.262Z,1.2
2023-01-18T05:55:20.440Z,1.2
2023-01-18T05:56:20.621Z,1.2
2023-01-18T05:57:20.805Z,1.2
2023-01-18T05:58:20.974Z,1.2
2023-01-18T05:59:21.153Z,1.2
2023-01-18T06:00:21.327Z,1.2
2023-01-18T06:01:21.708Z,1.2
2023-01-18T06:02:21.933Z,1.2
2023-01-18T06:03:22.120Z,1.2
2023-01-18T06:04:22.444Z,1.2
2023-01-18T06:05:22.744Z,1.3
2023-01-18T06:06:22.937Z,1.3
2023-01-18T06:07:23.111Z,1.3
2023-01-18T06:08:23.283Z,1.3
2023-01-18T06:09:23.451Z,1.3
2023-01-18T06:10:23.640Z,1.3
2023-01-18T06:11:23.821Z,1.3
2023-01-18T06:12:24.018Z,1.3
2023-01-18T06:13:24.189Z,1.3
2023-01-18T06:14:24.389Z,1.3
2023-01-18T06:15:24.573Z,1.4
2023-01-18T06:16:24.902Z,1.4
2023-01-18T06:17:25.167Z,1.4
2023-01-18T06:18:25.353Z,1.4
2023-01-18T06:19:25.528Z,1.4
2023-01-18T06:20:25.701Z,1.4
2023-01-18T06:21:25.880Z,1.4
2023-01-18T06:22:26.062Z,1.4
2023-01-18T06:23:26.241Z,1.4
2023-01-18T06:24:26.411Z,1.4
2023-01-18T06:25:26.598Z,1.5
2023-01-18T06:26:26.785Z,1.5
2023-01-18T06:27:26.962Z,1.5
2023-01-18T06:28:30.871Z,1.5
2023-01-18T06:29:31.196Z,1.5
2023-01-18T06:30:31.371Z,1.5
2023-01-18T06:31:31.605Z,1.5
2023-01-18T06:32:31.884Z,1.5
2023-01-18T06:33:32.073Z,1.5
2023-01-18T06:34:32.250Z,1.5
2023-01-18T06:35:32.437Z,1.5
2023-01-18T06:36:32.612Z,1.5
2023-01-18T06:37:32.784Z,1.5
2023-01-18T06:38:32.960Z,1.5
2023-01-18T06:39:33.204Z,1.5
2023-01-18T06:40:33.486Z,1.5
2023-01-18T06:41:33.680Z,1.5
2023-01-18T06:42:33.844Z,1.5
2023-01-18T06:43:34.015Z,1.5
2023-01-18T06:44:34.193Z,1.5
2023-01-18T06:45:34.478Z,1.5
2023-01-18T06:46:34.697Z,1.5
2023-01-18T06:47:34.916Z,1.5
2023-01-18T06:48:35.160Z,1.5
2023-01-18T06:49:35.331Z,1.5
2023-01-18T06:50:35.521Z,1.5
2023-01-18T06:51:35.742Z,1.5
2023-01-18T06:52:35.912Z,1.5
2023-01-18T06:53:38.106Z,1.5
2023-01-18T06:54:38.302Z,1.5
2023-01-18T06:55:38.484Z,1.4
2023-01-18T06:56:38.645Z,1.4
2023-01-18T06:57:38.819Z,1.4
2023-01-18T06:58:38.981Z,1.4
2023-01-18T06:59:39.165Z,1.4
2023-01-18T07:00:39.336Z,1.4
2023-01-18T07:01:39.786Z,1.4
2023-01-18T07:02:40.209Z,1.4
2023-01-18T07:03:40.521Z,1.4
2023-01-18T07:04:40.770Z,1.4
2023-01-18T07:05:40.949Z,1.3
2023-01-18T07:06:41.145Z,1.3
2023-01-18T07:07:41.313Z,1.3
2023-01-18T07:08:41.518Z,1.3
2023-01-18T07:09:41.691Z,1.3
2023-01-18T07:10:41.875Z,1.3
2023-01-18T07:11:42.036Z,1.3
2023-01-18T07:12:42.209Z,1.3
2023-01-18T07:13:42.383Z,1.3
2023-01-18T07:14:42.557Z,1.3
2023-01-18T07:15:42.753Z,1.2
2023-01-18T07:16:43.012Z,1.2
2023-01-18T07:17:43.235Z,1.2
2023-01-18T07:18:43.399Z,1.2
2023-01-18T07:19:43.565Z,1.2
2023-01-18T07:20:43.738Z,1.2
2023-01-18T07:21:43.949Z,1.2
2023-01-18T07:22:44.124Z,1.2
2023-01-18T07:23:44.300Z,1.2
2023-01-18T07:24:44.479Z,1.2
2023-01-18T07:25:44.650Z,1.1
2023-01-18T07:26:44.821Z,1.1
2023-01-18T07:27:45.000Z,1.1
2023-01-18T07:28:45.172Z,1.1
2023-01-18T07:29:45.364Z,1.1
2023-01-18T07:30:45.531Z,1.1
2023-01-18T07:31:45.847Z,1.1
2023-01-18T07:32:46.087Z,1.1
2023-01-18T07:33:46.268Z,1.1
2023-01-18T07:34:46.457Z,1.1
2023-01-18T07:35:46.625Z,1
2023-01-18T07:36:46.794Z,1
2023-01-18T07:37:46.991Z,1
2023-01-18T07:38:47.169Z,1
2023-01-18T07:39:47.388Z,1
2023-01-18T07:40:47.554Z,1
2023-01-18T07:41:47.726Z,1
2023-01-18T07:42:47.900Z,1
2023-01-18T07:43:48.086Z,1
2023-01-18T07:44:48.271Z,1
2023-01-18T07:45:48.546Z,0.9
2023-01-18T07:46:48.779Z,0.9
2023-01-18T07:47:48.946Z,0.9
2023-01-18T07:48:49.236Z,0.9
2023-01-18T07:49:49.511Z,0.9
2023-01-18T07:50:50.257Z,0.9
2023-01-18T07:51:50.437Z,0.9
2023-01-18T07:52:50.613Z,0.9
2023-01-18T07:53:50.788Z,0.9
2023-01-18T07:54:50.939Z,0.9
2023-01-18T07:55:51.102Z,0.8
2023-01-18T07:56:51.266Z,0.8
2023-01-18T07:57:51.504Z,0.8
2023-01-18T07:58:51.726Z,0.8
2023-01-18T07:59:51.906Z,0.8
2023-01-18T08:00:52.191Z,0.8
2023-01-18T08:01:52.615Z,0.8
2023-01-18T08:02:52.978Z,0.8
2023-01-18T08:03:53.249Z,0.8
2023-01-18T08:04:53.423Z,0.8
2023-01-18T08:05:53.608Z,0.8
2023-01-18T08:06:53.789Z,0.8
2023-01-18T08:07:53.971Z,0.8
2023-01-18T08:08:54.156Z,0.8
2023-01-18T08:09:54.357Z,0.8
2023-01-18T08:10:54.539Z,0.8
2023-01-18T08:11:54.716Z,0.8
2023-01-18T08:12:54.878Z,0.8
2023-01-18T08:13:55.062Z,0.8
2023-01-18T08:14:55.255Z,0.8
2023-01-18T08:15:55.796Z,0.8
2023-01-18T08:16:56.127Z,0.8
2023-01-18T08:17:56.339Z,0.8
2023-01-18T08:18:56.505Z,0.8
2023-01-18T08:19:56.677Z,0.8
2023-01-18T08:20:56.883Z,0.8
2023-01-18T08:21:57.097Z,0.8
2023-01-18T08:22:58.136Z,0.8
2023-01-18T08:23:59.044Z,0.8
2023-01-18T08:24:59.236Z,0.8
2023-01-18T08:25:59.402Z,0.8
2023-01-18T08:26:59.564Z,0.8
2023-01-18T08:27:59.760Z,0.8
2023-01-18T08:28:59.937Z,0.8
2023-01-18T08:30:00.193Z,0.8
2023-01-18T08:31:00.399Z,0.8
2023-01-18T08:32:00.647Z,0.8
2023-01-18T08:33:01.777Z,0.8
2023-01-18T08:34:02.208Z,0.8
2023-01-18T08:35:02.379Z,0.8
2023-01-18T08:36:02.550Z,0.7
2023-01-18T08:37:02.726Z,0.7
2023-01-18T08:38:02.906Z,0.7
2023-01-18T08:39:03.085Z,0.7
2023-01-18T08:40:03.263Z,0.7
2023-01-18T08:41:03.461Z,0.7
2023-01-18T08:42:03.655Z,0.7
2023-01-18T08:43:03.848Z,0.7
2023-01-18T08:44:04.026Z,0.7
2023-01-18T08:45:04.196Z,0.7
2023-01-18T08:46:04.537Z,0.8
2023-01-18T08:47:04.780Z,0.8
2023-01-18T08:48:04.964Z,0.8
2023-01-18T08:49:05.135Z,0.8
2023-01-18T08:50:05.321Z,0.8
2023-01-18T08:51:05.775Z,0.8
2023-01-18T08:52:06.366Z,0.8
2023-01-18T08:53:06.561Z,0.8
2023-01-18T08:54:06.786Z,0.8
2023-01-18T08:55:06.956Z,0.8
2023-01-18T08:56:07.133Z,0.8
2023-01-18T08:57:07.306Z,0.8
2023-01-18T08:58:07.504Z,0.8
2023-01-18T08:59:07.806Z,0.8
2023-01-18T09:00:08.079Z,0.8
2023-01-18T09:01:08.404Z,0.8
2023-01-18T09:02:08.677Z,0.8
2023-01-18T09:03:09.007Z,0.8
2023-01-18T09:04:09.339Z,0.8
2023-01-18T09:05:09.523Z,0.9
2023-01-18T09:06:13.213Z,0.9
2023-01-18T09:07:13.463Z,0.9
2023-01-18T09:08:13.633Z,0.9
2023-01-18T09:09:13.801Z,0.9
2023-01-18T09:10:13.985Z,0.9
2023-01-18T09:11:14.169Z,0.9
2023-01-18T09:12:14.349Z,0.9
2023-01-18T09:13:14.683Z,0.9
2023-01-18T09:14:14.873Z,0.9
2023-01-18T09:15:15.039Z,1.1
2023-01-18T09:16:15.355Z,1.1
2023-01-18T09:17:15.632Z,1.1
2023-01-18T09:18:15.825Z,1.1
2023-01-18T09:19:16.019Z,1.1
2023-01-18T09:20:19.271Z,1.1
2023-01-18T09:21:19.597Z,1.2
2023-01-18T09:22:19.764Z,1.2
2023-01-18T09:23:19.933Z,1.2
2023-01-18T09:24:20.126Z,1.2
2023-01-18T09:25:20.298Z,1.2
2023-01-18T09:26:20.657Z,1.2
2023-01-18T09:27:21.017Z,1.2
2023-01-18T09:28:21.208Z,1.2
2023-01-18T09:29:21.375Z,1.2
2023-01-18T09:30:21.551Z,1.2
2023-01-18T09:31:21.946Z,1.2
2023-01-18T09:32:22.355Z,1.2
2023-01-18T09:33:22.551Z,1.2
2023-01-18T09:34:22.802Z,1.2
2023-01-18T09:35:22.998Z,1.3
2023-01-18T09:36:23.171Z,1.3
2023-01-18T09:37:23.337Z,1.3
2023-01-18T09:38:23.500Z,1.3
2023-01-18T09:39:23.693Z,1.3
2023-01-18T09:40:23.898Z,1.3
2023-01-18T09:41:24.072Z,1.3
2023-01-18T09:42:24.293Z,1.3
2023-01-18T09:43:24.457Z,1.3
2023-01-18T09:44:24.636Z,1.3
2023-01-18T09:45:24.814Z,1.4
2023-01-18T09:46:25.036Z,1.4
2023-01-18T09:47:25.253Z,1.4
2023-01-18T09:48:25.448Z,1.4
2023-01-18T09:49:25.629Z,1.4
2023-01-18T09:50:25.819Z,1.4
2023-01-18T09:51:26.012Z,1.4
2023-01-18T09:52:26.232Z,1.4
2023-01-18T09:53:26.414Z,1.4
2023-01-18T09:54:26.586Z,1.4
2023-01-18T09:55:26.763Z,1.4
2023-01-18T09:56:26.923Z,1.4
2023-01-18T09:57:27.090Z,1.4
2023-01-18T09:58:27.287Z,1.4
2023-01-18T09:59:27.468Z,1.4
2023-01-18T10:00:27.916Z,1.4
2023-01-18T10:01:28.542Z,1.4
2023-01-18T10:02:29.070Z,1.4
2023-01-18T10:03:29.575Z,1.4
2023-01-18T10:04:29.752Z,1.4
2023-01-18T10:05:29.929Z,1.4
2023-01-18T10:06:30.103Z,1.4
2023-01-18T10:07:30.382Z,1.4
2023-01-18T10:08:30.731Z,1.4
2023-01-18T10:09:30.950Z,1.4
2023-01-18T10:10:31.136Z,1.4
2023-01-18T10:11:31.340Z,1.4
2023-01-18T10:12:31.658Z,1.4
2023-01-18T10:13:32.166Z,1.4
2023-01-18T10:14:32.345Z,1.4
2023-01-18T10:15:32.516Z,1.3
2023-01-18T10:16:32.752Z,1.3
2023-01-18T10:17:33.049Z,1.3
2023-01-18T10:18:33.232Z,1.3
2023-01-18T10:19:33.400Z,1.3
2023-01-18T10:20:33.573Z,1.3
2023-01-18T10:21:33.767Z,1.3
2023-01-18T10:22:33.955Z,1.3
2023-01-18T10:23:34.133Z,1.3
2023-01-18T10:24:34.306Z,1.3
2023-01-18T10:25:34.503Z,1.4
2023-01-18T10:26:34.680Z,1.4
2023-01-18T10:27:34.876Z,1.4
2023-01-18T10:28:35.047Z,1.4
2023-01-18T10:29:35.765Z,1.4
2023-01-18T10:30:35.946Z,1.4
2023-01-18T10:31:36.253Z,1.4
2023-01-18T10:32:36.546Z,1.4
2023-01-18T10:33:36.722Z,1.4
2023-01-18T10:34:36.885Z,1.4
2023-01-18T10:35:37.053Z,1.6
2023-01-18T10:36:37.231Z,1.6
2023-01-18T10:37:37.405Z,1.6
2023-01-18T10:38:37.592Z,1.6
2023-01-18T10:39:37.777Z,1.6
2023-01-18T10:40:37.977Z,1.6
2023-01-18T10:41:38.140Z,1.6
2023-01-18T10:42:38.327Z,1.6
2023-01-18T10:43:38.503Z,1.6
2023-01-18T10:44:38.674Z,1.6
2023-01-18T10:45:38.948Z,1.9
2023-01-18T10:46:39.220Z,1.9
2023-01-18T10:47:39.395Z,1.9
2023-01-18T10:48:39.558Z,1.9
2023-01-18T10:49:39.740Z,1.9
2023-01-18T10:50:40.182Z,1.9
2023-01-18T10:51:40.481Z,1.9
2023-01-18T10:52:40.666Z,1.9
2023-01-18T10:53:40.870Z,1.9
2023-01-18T10:54:41.036Z,1.9
2023-01-18T10:55:41.329Z,2.09
2023-01-18T10:56:41.500Z,2.09
2023-01-18T10:57:41.693Z,2.09
2023-01-18T10:58:41.910Z,2.09
2023-01-18T10:59:42.082Z,2.09
2023-01-18T11:00:42.332Z,2.09
2023-01-18T11:01:42.785Z,2.09
2023-01-18T11:02:43.414Z,2.09
2023-01-18T11:03:43.635Z,2.09
2023-01-18T11:04:43.845Z,2.09
2023-01-18T11:05:44.023Z,2.4
2023-01-18T11:06:44.207Z,2.4
2023-01-18T11:07:44.395Z,2.4
2023-01-18T11:08:44.622Z,2.4
2023-01-18T11:09:44.800Z,2.4
2023-01-18T11:10:44.967Z,2.4
2023-01-18T11:11:45.169Z,2.4
2023-01-18T11:12:45.331Z,2.4
2023-01-18T11:13:45.509Z,2.4
2023-01-18T11:14:45.678Z,2.4
2023-01-18T11:15:45.861Z,2.6
2023-01-18T11:16:46.111Z,2.6
2023-01-18T11:17:46.355Z,2.6
2023-01-18T11:18:46.520Z,2.6
2023-01-18T11:19:46.727Z,2.6
2023-01-18T11:20:46.899Z,2.6
2023-01-18T11:21:47.185Z,2.6
2023-01-18T11:22:47.358Z,2.6
2023-01-18T11:23:47.530Z,2.6
2023-01-18T11:24:47.709Z,2.6
2023-01-18T11:25:47.880Z,2.8
2023-01-18T11:26:48.055Z,2.8
2023-01-18T11:27:48.223Z,2.8
2023-01-18T11:28:48.399Z,2.8
2023-01-18T11:29:48.614Z,2.8
2023-01-18T11:30:48.800Z,2.8
2023-01-18T11:31:49.069Z,2.8
2023-01-18T11:32:49.383Z,2.8
2023-01-18T11:33:49.565Z,2.8
2023-01-18T11:34:49.737Z,2.8
2023-01-18T11:35:49.918Z,2.9
2023-01-18T11:36:50.094Z,2.9
2023-01-18T11:37:50.291Z,2.9
2023-01-18T11:38:50.469Z,2.9
2023-01-18T11:39:50.642Z,2.9
2023-01-18T11:40:50.817Z,2.9
2023-01-18T11:41:50.986Z,2.9
2023-01-18T11:42:51.171Z,2.9
2023-01-18T11:43:51.341Z,2.9
2023-01-18T11:44:51.517Z,2.9
2023-01-18T11:45:51.758Z,3.1
2023-01-18T11:46:51.996Z,3.1
2023-01-18T11:47:52.166Z,3.1
2023-01-18T11:48:52.409Z,3.1
2023-01-18T11:49:52.592Z,3.1
2023-01-18T11:50:52.782Z,3.1
2023-01-18T11:51:52.983Z,3.1
2023-01-18T11:52:53.155Z,3.1
2023-01-18T11:53:53.356Z,3.1
2023-01-18T11:54:53.558Z,3.1
2023-01-18T11:55:53.724Z,3.3
2023-01-18T11:56:53.902Z,3.3
2023-01-18T11:57:54.121Z,3.3
2023-01-18T11:58:54.294Z,3.3
2023-01-18T11:59:54.455Z,3.3
2023-01-18T12:00:54.689Z,3.3
2023-01-18T12:01:55.015Z,3.3
2023-01-18T12:02:55.401Z,3.3
2023-01-18T12:03:55.637Z,3.3
2023-01-18T12:04:55.813Z,3.3
2023-01-18T12:05:55.999Z,3.4
2023-01-18T12:06:56.182Z,3.4
2023-01-18T12:07:56.353Z,3.4
2023-01-18T12:08:56.773Z,3.4
2023-01-18T12:09:56.949Z,3.4
2023-01-18T12:10:57.130Z,3.4
2023-01-18T12:12:18.345Z,3.4
2023-01-18T12:13:20.175Z,3.5
2023-01-18T12:14:20.387Z,3.5
2023-01-18T12:15:20.570Z,3.4
2023-01-18T12:16:20.856Z,3.4
2023-01-18T12:17:21.159Z,3.4
2023-01-18T12:18:21.323Z,3.4
2023-01-18T12:19:21.504Z,3.4
2023-01-18T12:20:21.676Z,3.4
2023-01-18T12:21:21.839Z,3.4
2023-01-18T12:22:22.004Z,3.4
2023-01-18T12:23:22.183Z,3.4
2023-01-18T12:24:22.414Z,3.4
2023-01-18T12:25:22.635Z,3.3
2023-01-18T12:26:22.810Z,3.3
2023-01-18T12:27:22.996Z,3.3
2023-01-18T12:28:23.164Z,3.3
2023-01-18T12:29:23.341Z,3.3
2023-01-18T12:30:23.538Z,3.3
2023-01-18T12:31:23.705Z,3.3
2023-01-18T12:32:23.874Z,3.3
2023-01-18T12:33:43.927Z,3.3
2023-01-18T12:34:44.458Z,3.1
2023-01-18T12:35:44.639Z,3
2023-01-18T12:36:44.827Z,3
2023-01-18T12:37:44.993Z,3
2023-01-18T12:38:45.165Z,3
2023-01-18T12:39:45.391Z,3
2023-01-18T12:40:45.573Z,3
2023-01-18T12:41:45.742Z,3
2023-01-18T12:42:45.914Z,3
2023-01-18T12:43:46.108Z,3
2023-01-18T12:44:46.298Z,3
2023-01-18T12:45:46.650Z,2.9
2023-01-18T12:46:47.034Z,2.9
2023-01-18T12:47:47.207Z,2.9
2023-01-18T12:48:47.380Z,2.9
2023-01-18T12:49:47.547Z,2.9
2023-01-18T12:50:47.718Z,2.9
2023-01-18T12:51:47.897Z,2.9
2023-01-18T12:52:48.090Z,2.9
2023-01-18T12:53:48.278Z,2.9
2023-01-18T12:54:48.461Z,2.9
2023-01-18T12:55:48.632Z,2.8
2023-01-18T12:56:48.848Z,2.8
2023-01-18T12:57:49.020Z,2.8
2023-01-18T12:58:49.199Z,2.8
2023-01-18T12:59:49.370Z,2.8
2023-01-18T13:00:49.625Z,2.8
2023-01-18T13:01:49.943Z,2.8
2023-01-18T13:02:50.305Z,2.8
2023-01-18T13:03:50.543Z,2.8
2023-01-18T13:04:50.761Z,2.8
2023-01-18T13:05:51.027Z,2.8
2023-01-18T13:06:51.257Z,2.8
2023-01-18T13:07:51.426Z,2.8
2023-01-18T13:08:51.603Z,2.8
2023-01-18T13:09:51.801Z,2.8
2023-01-18T13:10:51.993Z,2.8
2023-01-18T13:11:52.164Z,2.8
2023-01-18T13:12:52.322Z,2.8
2023-01-18T13:13:52.489Z,2.8
2023-01-18T13:14:52.656Z,2.8
2023-01-18T13:15:52.932Z,2.8
2023-01-18T13:16:53.202Z,2.8
2023-01-18T13:17:53.372Z,2.8
2023-01-18T13:18:53.537Z,2.8
2023-01-18T13:19:53.705Z,2.8
2023-01-18T13:20:53.867Z,2.8
2023-01-18T13:21:54.036Z,2.8
2023-01-18T13:22:54.202Z,2.8
2023-01-18T13:23:54.369Z,2.8
2023-01-18T13:24:54.556Z,2.8
2023-01-18T13:25:54.797Z,3
2023-01-18T13:26:55.006Z,3
2023-01-18T13:27:55.186Z,3
2023-01-18T13:28:55.345Z,3
2023-01-18T13:29:55.512Z,3
2023-01-18T13:30:55.799Z,3
2023-01-18T13:31:56.015Z,3
2023-01-18T13:32:56.202Z,3
2023-01-18T13:33:56.385Z,3
2023-01-18T13:35:21.126Z,3
2023-01-18T13:36:24.666Z,3.5
2023-01-18T13:37:25.370Z,3.5
2023-01-18T13:38:41.994Z,3.5
2023-01-18T13:39:42.947Z,3.6
2023-01-18T13:40:43.159Z,3.6
2023-01-18T13:41:43.362Z,3.6
2023-01-18T13:42:43.524Z,3.6
2023-01-18T13:43:43.716Z,3.6
2023-01-18T13:44:43.905Z,3.6
2023-01-18T13:45:44.092Z,3.8
2023-01-18T13:46:44.388Z,3.8
2023-01-18T13:47:44.756Z,3.8
2023-01-18T13:48:44.986Z,3.8
2023-01-18T13:49:45.205Z,3.8
2023-01-18T13:50:45.403Z,3.8